Tuesday, September 30, 2014
13:56 UTC
  |  Log In   |  Register Free
Airport Search:

Northeast Philadelphia Airport
(KPNE)

FAA data valid effective September 18, 2014 - November 13, 2014 (unless otherwise noted).

 
 
 
 
 
 
 
 
 
 
 
 
 
 

Current Aviation Weather for Northeast Philadelphia Airport (KPNE)

The most recent METAR observation for KPNE was updated at: 1312
METAR Summary (Translated METAR)
KPNE
301254Z 12005KT 10SM CLR 18/13 A2997 RMK AO2 SLP148 T01830128
KVAY
301254Z AUTO 00000KT 8SM CLR 17/15 A2995 RMK AO2 SLP142 T01670150
(11.3 nm SE from KPNE)
KLOM
301255Z AUTO 00000KT 1 1/2SM VV007 17/16 A2995 RMK AO1
(12.1 nm NW from KPNE)
TAF Summary (Translated TAF)
KPNE
301137Z 3012/0112 15005KT P6SM BKN150 FM301800 09006KT P6SM SCT050 BKN150 FM010500 03008KT P6SM BKN010 FM010800 03008KT 6SM BR OVC007
  Airport Weather Conditions for KPNE

 Current Weather at PNE
65° F
Fair
Southeast winds at 5.8 mph
PNE NOAA Radar

Pressure: 29.97 in
Humidity: 70%
Wind: Southeast at 5.8 MPH (5 KT)
Dew Point: 55.0°F
Visibility: 10.00 mi


Airport Weather Forecast for KPNE

Translated METAR and TAF for KPNE
Translated METAR for KPNE (1351 UTC 30 September 2014)
found at http://aviationweather.gov/adds/metars/
 
METAR text: KPNE 301254Z 12005KT 10SM CLR 18/13 A2997 RMK AO2 SLP148 T01830128
Conditions at: KPNE (PHILADELPHIA/NE , PA, US) observed 1254 UTC 30 September 2014
Temperature: 18.3°C (65°F)
Dewpoint: 12.8°C (55°F) [RH = 70%]
Pressure (altimeter): 29.97 inches Hg (1015.0 mb)
[Sea-level pressure: 1014.8 mb]
Winds: from the ESE (120 degrees) at 6 MPH (5 knots; 2.6 m/s)
Visibility: 10 or more miles (16+ km)
Ceiling: at least 12,000 feet AGL
Clouds: sky clear below 12,000 feet AGL
Weather: no significant weather observed at this time
Translated TAF for KPNE
Forecast for: KPNE (PHILADELPHIA/NE , PA, US)
TAF Text: KPNE 301137Z 3012/0112 15005KT P6SM BKN150
Forecast period: 1200 to 1800 UTC 30 September 2014
Forecast type: FROM: standard forecast or significant change
Winds: from the SSE (150 degrees) at 6 MPH (5 knots; 2.6 m/s)
Visibility: 6 or more miles (10+ km)
Ceiling: 15000 feet AGL
Clouds: broken clouds at 15000 feet AGL
Weather: no significant weather forecast for this period
TAF Text: FM301800 09006KT P6SM SCT050 BKN150
Forecast period: 1800 UTC 30 September 2014 to 0500 UTC 01 October 2014
Forecast type: FROM: standard forecast or significant change
Winds: from the E (90 degrees) at 7 MPH (6 knots; 3.1 m/s)
Visibility: 6 or more miles (10+ km)
Ceiling: 15000 feet AGL
Clouds: scattered clouds at 5000 feet AGL
broken clouds at 15000 feet AGL
Weather: no significant weather forecast for this period
TAF Text: FM010500 03008KT P6SM BKN010
Forecast period: 0500 to 0800 UTC 01 October 2014
Forecast type: FROM: standard forecast or significant change
Winds: from the NNE (30 degrees) at 9 MPH (8 knots; 4.2 m/s)
Visibility: 6 or more miles (10+ km)
Ceiling: 1000 feet AGL
Clouds: broken clouds at 1000 feet AGL
Weather: no significant weather forecast for this period
TAF Text: FM010800 03008KT 6SM BR OVC007
Forecast period: 0800 to 1200 UTC 01 October 2014
Forecast type: FROM: standard forecast or significant change
Winds: from the NNE (30 degrees) at 9 MPH (8 knots; 4.2 m/s)
Visibility: 6 miles (10 km)
Ceiling: 700 feet AGL
Clouds: overcast cloud deck at 700 feet AGL
Weather: BR  (mist)

Find All Airport Services Find A Hotel Find A Rental Car Find A Golf Course Find A Restaurant $100 Hamburger



FBO's on the Field
FBO Company Facility Photos Services Transportation Aviation Fuel Prices: Prices include tax
Catering Weather Repair Courtesy Rental Type 100LL JetA JetA+ MOGAS 8087
 
Atlantic Aviation

This FBO has not yet been rated
FS:Texaco
Last Updated: Sep-29
Login to update fuel prices
SS:
Contact Atlantic AviationMore FBO Information
 
North Philadelphia Jet Center

Currently rated 5 by 2 people
FS:Avfuel
Last Updated: Sep-29
Login to update fuel prices
SS:
Contact North Philadelphia Jet CenterMore FBO Information
 
Add another FBO Facility Photos Catering Weather Repair Courtesy Rental Type 100LL JetA JetA+ MOGAS 8087
Services Transportation Aviation Fuel Prices: Prices include tax


model-print
model-print
model-print
model-print